Startpagina
METAR-TAF:

METAR-TAF

Vliegvelden :

Tripoli, Libië

Luchthaven Mitiga Internationaal

breedte: 32-54N, lengte: 13-17E, hoogte: 11 m

METAR: ontbreekt

Tijdstip: 23:06 (21:06 UTC)

Verwachting

Dit bericht is 22 uur en het 6 minuten geleden gemaakt, om 23:00 UTC
Verwachting geldig van 15 om 00 UTC tot 15 om 24 UTC
Wind 8 kt uit het zuidoosten
Zicht: 8000 m
Wijzigt naar
van 15 om 15 UTC tot 15 om 17 UTC
Wind 10 kt uit het noordnoordoosten

TAF: HLLM 142300Z 1500/1524 14008KT 8000 NSC BECMG 1515/1517 03010KT

Waarnemingen en weersverwachtingen van meer dan 4000 vliegvelden (METAR en TAF).

De beschikbare stations zijn de gele en rode punten op de kaart.

Ga met uw muis naar het station om de naam te zien.

Klik dan om waarnemingen en weersverwachtingen te zien.

kaart wijzigen: klik op de groene knoppen met een zwart kruis om in te zoomen, op de groene knop met een streepje om uit te zoomen of op de groene pijlen voor aangrenzende kaarten.


METAR-TAF: